Estación Meteorológica Peña el Pijo (Robertgarden) [ 08/17/18 05:40:07 CEST ]

Fecha Hora Presion(HPa) Temp (°C) Humedad % Rocio (°C) Viento ( m/s) Direccion Lluvia 1Hora(mm) Lluvia 24H(mm) LLuvia Total(mm)
2018-Jun-11 01:01:46 1006.200 14.1 67 8.0         266.25
2018-Jun-11 02:01:56 1006.100 12.9 69 7.4         266.25
2018-Jun-11 03:04:13 1005.600 11.0 73 6.4         266.25
2018-Jun-11 04:01:55 1005.400 10.1 76 6.0         266.25
2018-Jun-11 05:01:42 1005.300 9.3 79 5.8         266.25
2018-Jun-11 06:01:52 1005.000 8.5 80 5.2         266.25
2018-Jun-11 07:01:51 1005.500 8.8 82 5.9         266.25
2018-Jun-11 08:01:37 1005.400 11.0 86 8.7         266.25
2018-Jun-11 09:01:41 1005.500 15.9 72 10.9         266.25
2018-Jun-11 10:01:44 1005.500 18.7 56 9.7         266.25
2018-Jun-11 11:01:39 1005.700 22.0 48 10.4         266.25
2018-Jun-11 12:01:47 1005.800 21.8 43 8.6         266.25
2018-Jun-11 13:01:46 1005.600 20.5 49 9.4         266.25
2018-Jun-11 14:01:49 1005.500 23.8 44 10.8         266.25
2018-Jun-11 15:01:46 1004.900 24.8 41 10.7         266.25
2018-Jun-11 16:01:46 1004.700 25.1 41 10.9 1.7 WNW     266.25
2018-Jun-11 17:01:53 1004.600 23.9 40 9.5         266.25
2018-Jun-11 18:01:39 1004.700 23.9 40 9.5 1.1 N     266.25
2018-Jun-11 19:01:47 1004.900 22.5 40 8.2         266.25
2018-Jun-11 20:01:52 1005.400 18.4 47 6.8 0.6 NW     266.25
2018-Jun-11 21:01:38 1005.900 16.9 51 6.7         266.25
2018-Jun-11 22:01:36 1006.600 15.4 55 6.4         266.25
2018-Jun-11 23:01:35 1007.400 13.4 60 5.8         266.25

Temperatura Máxima:25°    Temperatura Mínima:
Presión Máxima:1007.400 Hpa    Presión Mínima:1004.600 Hpa


Volver